Time;durP1;ratioP1;P1;durP2;ratioP2;P2;SDS_P1;SDS_P2;PMS_P1;PMS_P2;Temp;Humidity;BMP_temperature;BMP_pressure;BME280_temperature;BME280_humidity;BME280_pressure;Samples;Min_cycle;Max_cycle;Signal;HPM_P1;HPM_P2
2021/12/15 00:00:43;;;;;;;4.05;2.75;;;;;;;20.85;29.93;100448.47;5093806;28;20059;-56
2021/12/15 00:03:09;;;;;;;4.20;2.72;;;;;;;20.86;29.73;100448.16;5112554;28;20122;-56
2021/12/15 00:05:35;;;;;;;3.88;2.80;;;;;;;20.86;29.87;100464.03;5112518;28;20075;-57
2021/12/15 00:08:06;;;;;;;3.28;2.55;;;;;;;20.86;29.83;100448.16;5112518;28;20098;-56
2021/12/15 00:10:31;;;;;;;4.15;2.72;;;;;;;20.85;29.95;100460.41;5112367;28;20430;-57
2021/12/15 00:12:57;;;;;;;4.28;2.97;;;;;;;20.86;29.78;100461.25;5112400;28;20035;-57
2021/12/15 00:15:27;;;;;;;3.70;2.60;;;;;;;20.85;29.67;100448.47;5112433;28;20075;-56
2021/12/15 00:17:53;;;;;;;4.32;3.10;;;;;;;20.85;29.79;100449.28;5112381;28;20074;-56
2021/12/15 00:20:19;;;;;;;3.90;2.70;;;;;;;20.85;29.77;100443.72;5112446;28;20040;-57
2021/12/15 00:22:46;;;;;;;3.75;2.72;;;;;;;20.84;29.87;100444.88;5112313;28;20055;-57
2021/12/15 00:25:12;;;;;;;3.72;2.58;;;;;;;20.82;29.78;100455.56;5112105;28;20124;-57
2021/12/15 00:27:38;;;;;;;3.50;2.42;;;;;;;20.84;29.76;100455.19;5112194;28;20048;-57
2021/12/15 00:30:06;;;;;;;3.63;2.53;;;;;;;20.84;29.65;100457.97;5110673;28;20411;-56
2021/12/15 00:32:32;;;;;;;4.18;2.72;;;;;;;20.82;29.90;100450.00;5112005;28;20055;-57
2021/12/15 00:34:58;;;;;;;3.55;2.63;;;;;;;20.84;29.81;100461.56;5111998;28;20046;-56
2021/12/15 00:37:23;;;;;;;3.40;2.30;;;;;;;20.84;29.86;100460.75;5112069;28;20538;-57
2021/12/15 00:39:48;;;;;;;3.65;2.42;;;;;;;20.86;29.83;100458.47;5111912;28;20051;-57
2021/12/15 00:42:15;;;;;;;4.15;2.65;;;;;;;20.85;29.66;100454.03;5111935;28;20039;-57
2021/12/15 00:44:40;;;;;;;3.33;2.42;;;;;;;20.83;29.59;100459.16;5111629;28;20050;-57
2021/12/15 00:47:07;;;;;;;3.78;2.60;;;;;;;20.84;29.54;100452.41;5111823;28;20047;-57
2021/12/15 00:49:33;;;;;;;3.70;2.58;;;;;;;20.84;29.59;100449.63;5111685;28;20051;-57
2021/12/15 00:51:59;;;;;;;3.70;2.55;;;;;;;20.82;29.72;100440.84;5111744;28;20071;-56
2021/12/15 00:54:24;;;;;;;3.20;2.40;;;;;;;20.82;29.69;100449.19;5111879;28;20415;-56
2021/12/15 00:56:52;;;;;;;3.28;2.30;;;;;;;20.82;29.63;100443.63;5111640;28;20059;-57
2021/12/15 00:59:17;;;;;;;3.60;2.50;;;;;;;20.80;29.62;100451.50;5111640;28;20032;-57
2021/12/15 01:01:43;;;;;;;3.38;2.35;;;;;;;20.82;29.72;100454.75;5111711;28;20062;-56
2021/12/15 01:04:12;;;;;;;3.47;2.25;;;;;;;20.81;29.68;100456.72;5111348;28;20398;-56
2021/12/15 01:06:39;;;;;;;3.17;2.38;;;;;;;20.81;29.63;100451.16;5111440;28;20063;-56
2021/12/15 01:09:10;;;;;;;3.60;2.38;;;;;;;20.83;29.55;100440.50;5111514;28;20131;-57
2021/12/15 01:20:08;;;;;;;3.22;2.03;;;;;;;20.81;29.70;100451.16;5048311;28;20045;-58
2021/12/15 01:22:37;;;;;;;3.28;2.33;;;;;;;20.80;29.67;100449.53;5031639;28;20060;-58
2021/12/15 01:25:13;;;;;;;3.40;2.42;;;;;;;20.79;29.64;100447.13;5047969;28;20037;-57
2021/12/15 01:27:40;;;;;;;3.67;2.40;;;;;;;20.79;29.52;100455.47;5045610;28;20077;-57
2021/12/15 01:30:07;;;;;;;3.08;2.35;;;;;;;20.79;29.63;100453.50;5028196;28;20061;-58
2021/12/15 01:32:34;;;;;;;3.65;2.47;;;;;;;20.77;29.69;100447.44;5028244;28;20136;-58
2021/12/15 01:34:59;;;;;;;3.40;2.42;;;;;;;20.79;29.55;100447.94;5028396;28;20050;-58
2021/12/15 01:37:25;;;;;;;3.92;2.40;;;;;;;20.78;29.65;100456.59;5028168;28;20059;-57
2021/12/15 01:39:54;;;;;;;3.53;2.25;;;;;;;20.78;29.44;100456.59;5028180;28;20051;-57
2021/12/15 01:42:20;;;;;;;3.70;2.55;;;;;;;20.79;29.46;100461.03;5028410;28;20132;-58
2021/12/15 01:47:30;;;;;;;3.53;2.20;;;;;;;20.78;29.48;100460.19;5028326;28;20044;-58
2021/12/15 01:49:55;;;;;;;3.80;2.28;;;;;;;20.79;29.37;100467.41;5028130;28;20049;-58
2021/12/15 01:52:29;;;;;;;3.47;2.30;;;;;;;20.77;29.44;100466.09;5028152;28;20136;-58
2021/12/15 01:55:16;;;;;;;3.40;2.28;;;;;;;20.78;29.55;100462.97;5027880;28;20045;-58
2021/12/15 01:57:43;;;;;;;3.75;2.58;;;;;;;20.79;29.45;100464.59;5085725;28;20419;-58
2021/12/15 02:00:21;;;;;;;3.38;2.33;;;;;;;20.76;29.46;100453.38;5110683;28;20130;-58
2021/12/15 02:02:49;;;;;;;3.90;2.47;;;;;;;20.77;29.45;100460.53;5110537;28;20083;-58
2021/12/15 02:05:15;;;;;;;3.03;2.10;;;;;;;20.77;29.42;100450.22;5110279;28;20047;-57
2021/12/15 02:07:44;;;;;;;3.20;2.42;;;;;;;20.76;29.55;100459.72;5110622;28;20040;-58
2021/12/15 02:10:11;;;;;;;3.53;2.20;;;;;;;20.76;29.52;100453.38;5110552;28;20039;-58
2021/12/15 02:12:41;;;;;;;3.25;2.25;;;;;;;20.76;29.52;100450.59;5110795;28;20126;-58
2021/12/15 02:15:17;;;;;;;2.85;2.13;;;;;;;20.97;29.43;100454.03;5110574;28;20054;-58
2021/12/15 02:17:44;;;;;;;2.80;2.00;;;;;;;21.33;28.83;100444.81;5110478;28;20044;-58
2021/12/15 02:20:12;;;;;;;2.90;2.10;;;;;;;21.34;28.67;100451.97;5110605;28;20088;-58
2021/12/15 02:22:38;;;;;;;2.58;1.80;;;;;;;21.26;28.98;100458.47;5110532;28;20113;-58
2021/12/15 02:25:07;;;;;;;3.22;2.20;;;;;;;21.24;29.17;100462.78;5110162;28;20051;-58
2021/12/15 02:27:35;;;;;;;2.80;2.00;;;;;;;21.83;28.17;100460.13;5110269;28;20044;-58
2021/12/15 02:30:18;;;;;;;2.85;1.92;;;;;;;22.12;27.61;100458.94;5109704;28;20051;-58
2021/12/15 02:33:04;;;;;;;3.08;2.17;;;;;;;22.01;27.99;100460.63;5110233;28;20052;-58
2021/12/15 02:38:14;;;;;;;3.08;2.08;;;;;;;21.61;28.22;100444.00;5110265;28;20098;-58
2021/12/15 02:40:40;;;;;;;3.47;2.30;;;;;;;21.48;28.71;100442.44;5110170;28;20515;-58
2021/12/15 02:43:06;;;;;;;3.22;2.22;;;;;;;21.36;28.75;100449.69;5110034;28;20530;-58
2021/12/15 02:45:32;;;;;;;3.28;2.13;;;;;;;21.28;29.01;100445.03;5109799;28;20059;-58
2021/12/15 02:47:57;;;;;;;3.25;2.33;;;;;;;21.21;28.82;100446.78;5110045;28;20565;-58
2021/12/15 02:50:27;;;;;;;2.55;1.80;;;;;;;21.12;28.79;100444.94;5109843;28;20036;-58
2021/12/15 02:52:55;;;;;;;2.67;1.92;;;;;;;21.11;28.96;100448.09;5109700;28;20075;-58
2021/12/15 02:55:21;;;;;;;2.80;1.90;;;;;;;21.05;29.03;100439.16;5109990;28;20048;-58
2021/12/15 02:57:48;;;;;;;2.90;1.90;;;;;;;21.03;29.00;100437.91;5091872;28;20819;-58
2021/12/15 03:00:28;;;;;;;2.88;2.00;;;;;;;21.00;28.96;100441.38;5109737;28;20138;-58
2021/12/15 03:03:46;;;;;;;2.90;2.10;;;;;;;20.96;29.02;100435.72;5109908;28;20040;-57
2021/12/15 03:05:54;;;;;;;3.28;2.20;;;;;;;20.92;29.02;100442.31;5107034;28;20135;-58
2021/12/15 03:08:24;;;;;;;3.20;2.03;;;;;;;20.94;29.29;100437.25;5109668;28;20752;-58
2021/12/15 03:16:22;;;;;;;2.75;1.95;;;;;;;20.89;29.30;100446.63;5109503;28;20140;-58
2021/12/15 03:18:47;;;;;;;2.65;1.90;;;;;;;20.86;29.19;100448.16;5109555;28;20117;-58
2021/12/15 03:21:17;;;;;;;3.17;2.28;;;;;;;20.82;29.25;100440.84;5109416;28;20051;-58
2021/12/15 03:23:52;;;;;;;3.15;2.00;;;;;;;20.85;29.31;100445.69;5109486;28;20043;-58
2021/12/15 03:26:23;;;;;;;3.10;2.10;;;;;;;20.83;29.13;100446.06;5109416;28;20067;-58
2021/12/15 03:34:38;;;;;;;2.53;1.90;;;;;;;20.80;29.50;100455.09;5109526;28;20510;-58
2021/12/15 03:37:20;;;;;;;3.00;2.25;;;;;;;20.78;29.13;100454.63;5109397;28;20066;-58
2021/12/15 03:39:46;;;;;;;2.72;1.92;;;;;;;20.78;29.34;100457.41;5109464;28;20559;-58
2021/12/15 03:42:17;;;;;;;2.97;1.98;;;;;;;20.78;29.46;100462.97;5109336;28;20085;-58
2021/12/15 03:44:45;;;;;;;3.25;2.08;;;;;;;20.79;29.39;100461.03;5108926;28;20078;-58
2021/12/15 03:47:15;;;;;;;3.03;2.03;;;;;;;20.78;29.10;100460.19;5109213;28;20118;-58
2021/12/15 03:49:42;;;;;;;2.83;2.03;;;;;;;20.77;29.23;100464.13;5109366;28;20047;-58
2021/12/15 03:52:09;;;;;;;2.95;1.90;;;;;;;20.77;29.28;100458.56;5108833;28;20522;-58
2021/12/15 03:54:35;;;;;;;3.10;2.20;;;;;;;20.78;29.17;100457.41;5109220;28;20098;-58
2021/12/15 03:57:00;;;;;;;2.92;2.03;;;;;;;20.77;29.00;100455.78;5108962;28;20057;-58
2021/12/15 03:59:28;;;;;;;2.95;1.98;;;;;;;20.76;29.15;100451.38;5108688;28;20085;-59
2021/12/15 04:01:54;;;;;;;3.00;2.17;;;;;;;20.76;29.01;100445.03;5108338;28;20526;-58
2021/12/15 04:04:19;;;;;;;3.45;2.05;;;;;;;20.75;29.27;100444.22;5108979;28;20036;-58
2021/12/15 04:06:45;;;;;;;2.60;1.90;;;;;;;20.75;29.22;100440.63;5111748;28;20457;-58
2021/12/15 04:09:13;;;;;;;2.85;2.10;;;;;;;20.74;29.24;100431.47;5112554;28;20044;-58
2021/12/15 04:11:40;;;;;;;3.05;1.88;;;;;;;20.75;29.08;100435.06;5112340;28;20098;-58
2021/12/15 04:14:18;;;;;;;3.00;2.10;;;;;;;20.74;29.13;100441.78;5112487;28;20039;-58
2021/12/15 04:16:57;;;;;;;2.97;2.00;;;;;;;20.73;29.21;100432.63;5112215;28;20138;-58
2021/12/15 04:19:22;;;;;;;2.58;1.70;;;;;;;20.75;29.05;100435.88;5112317;28;20130;-58
2021/12/15 04:21:48;;;;;;;2.72;1.92;;;;;;;20.76;29.06;100439.47;5112151;28;20071;-58
2021/12/15 04:24:16;;;;;;;3.28;2.17;;;;;;;20.75;29.06;100443.41;5112372;28;20043;-58
2021/12/15 04:26:42;;;;;;;3.08;1.95;;;;;;;20.73;29.04;100437.38;5111899;28;20067;-58
2021/12/15 04:29:07;;;;;;;2.92;2.15;;;;;;;20.74;29.10;100450.13;5112215;28;20044;-58
2021/12/15 04:31:39;;;;;;;2.78;2.03;;;;;;;20.74;29.12;100444.56;5112162;28;20043;-58
2021/12/15 04:34:08;;;;;;;2.92;2.10;;;;;;;20.72;29.11;100442.16;5112203;28;20056;-58
2021/12/15 04:36:37;;;;;;;2.65;1.80;;;;;;;20.74;29.05;100448.16;5112287;28;20134;-58
2021/12/15 04:39:06;;;;;;;3.13;2.15;;;;;;;20.74;29.19;100448.16;5112033;28;20044;-58
2021/12/15 04:41:32;;;;;;;3.03;1.80;;;;;;;20.73;29.08;100443.75;5112165;28;20040;-57
2021/12/15 04:44:00;;;;;;;2.83;1.92;;;;;;;20.72;29.11;100442.16;5111884;28;20202;-58
2021/12/15 04:46:30;;;;;;;2.80;2.00;;;;;;;20.70;29.24;100436.09;5111531;28;20059;-58
2021/12/15 04:48:56;;;;;;;2.70;1.92;;;;;;;20.72;29.30;100436.59;5111943;28;20035;-58
2021/12/15 04:51:22;;;;;;;2.90;2.08;;;;;;;20.71;28.98;100446.06;5111708;28;20452;-58
2021/12/15 04:53:48;;;;;;;3.10;2.10;;;;;;;20.73;29.34;100440.97;5111673;28;20161;-58
2021/12/15 04:56:14;;;;;;;3.10;2.10;;;;;;;20.71;29.35;100443.28;5111933;28;20069;-58
2021/12/15 04:58:40;;;;;;;2.65;1.95;;;;;;;20.73;29.33;100443.75;5111837;28;20044;-58
2021/12/15 05:01:08;;;;;;;3.75;2.15;;;;;;;20.72;29.21;100447.69;5111739;28;20616;-56
2021/12/15 05:03:34;;;;;;;2.55;1.85;;;;;;;20.72;29.25;100447.69;5111414;28;20528;-57
2021/12/15 05:06:00;;;;;;;2.97;1.90;;;;;;;20.73;29.26;100448.50;5111407;28;20055;-57
2021/12/15 05:08:25;;;;;;;3.63;1.95;;;;;;;20.71;29.35;100437.72;5111445;28;20563;-57
2021/12/15 05:10:54;;;;;;;2.83;1.90;;;;;;;20.71;29.41;100440.50;5111249;28;20043;-57
2021/12/15 05:13:20;;;;;;;2.78;1.92;;;;;;;20.73;29.43;100445.72;5111484;28;20043;-57
2021/12/15 05:15:46;;;;;;;2.40;1.67;;;;;;;20.74;29.39;100458.47;5111256;28;20511;-57
2021/12/15 05:18:12;;;;;;;2.80;1.90;;;;;;;20.74;29.42;100450.94;5111345;28;20125;-57
2021/12/15 05:20:39;;;;;;;2.53;1.70;;;;;;;20.73;29.35;100445.72;5111530;28;20540;-57
2021/12/15 05:23:05;;;;;;;2.33;1.67;;;;;;;20.72;29.25;100442.16;5111183;28;20032;-58
2021/12/15 05:25:32;;;;;;;2.50;1.70;;;;;;;20.74;29.25;100453.72;5111153;28;20131;-56
2021/12/15 05:27:57;;;;;;;2.38;1.70;;;;;;;20.74;29.26;100455.69;5111196;28;20127;-57
2021/12/15 05:30:23;;;;;;;2.63;1.75;;;;;;;20.72;29.29;100447.69;5111109;28;20495;-56
2021/12/15 05:32:50;;;;;;;3.03;1.90;;;;;;;20.73;29.37;100449.31;5117110;28;20524;-57
2021/12/15 05:35:21;;;;;;;2.95;1.90;;;;;;;20.70;29.18;100450.00;5131696;27;20043;-56
2021/12/15 05:37:49;;;;;;;2.30;1.60;;;;;;;20.71;29.35;100443.28;5131642;27;20047;-57
2021/12/15 05:40:15;;;;;;;2.20;1.50;;;;;;;20.71;29.23;100448.84;5131619;27;20049;-58
2021/12/15 05:42:40;;;;;;;2.53;1.63;;;;;;;20.71;29.16;100434.94;5131573;27;20042;-58
2021/12/15 05:45:07;;;;;;;4.40;1.95;;;;;;;20.70;29.47;100447.22;5131549;27;20392;-58
2021/12/15 05:47:35;;;;;;;2.63;1.70;;;;;;;20.69;29.43;100453.94;5131426;27;20043;-58
2021/12/15 05:50:06;;;;;;;2.08;1.45;;;;;;;20.70;29.16;100444.44;5131212;27;20490;-58
2021/12/15 05:52:32;;;;;;;2.40;1.73;;;;;;;20.74;29.38;100455.69;5131291;27;20049;-58
2021/12/15 05:54:58;;;;;;;2.83;1.73;;;;;;;20.74;29.34;100455.69;5131291;27;20060;-58
2021/12/15 05:57:24;;;;;;;3.03;1.90;;;;;;;20.75;29.23;100454.53;5131103;27;20043;-58
2021/12/15 05:59:49;;;;;;;2.42;1.75;;;;;;;20.75;29.30;100452.56;5131222;27;20043;-57
2021/12/15 06:02:15;;;;;;;2.70;1.73;;;;;;;20.74;29.19;100453.72;5131382;27;20047;-58
2021/12/15 06:04:40;;;;;;;2.22;1.50;;;;;;;20.76;29.32;100450.59;5131549;27;20043;-58
2021/12/15 06:07:06;;;;;;;2.40;1.77;;;;;;;20.75;29.37;100449.78;5131078;27;20081;-58
2021/12/15 06:09:33;;;;;;;2.30;1.58;;;;;;;20.76;29.15;100447.81;5131109;27;20047;-57
2021/12/15 06:11:58;;;;;;;2.40;1.50;;;;;;;20.75;29.29;100447.00;5131144;27;20050;-57
2021/12/15 06:14:27;;;;;;;2.15;1.48;;;;;;;21.19;28.99;100441.56;5131114;27;20043;-58
2021/12/15 06:17:02;;;;;;;2.47;1.67;;;;;;;21.64;28.03;100446.88;5130913;27;20066;-58
2021/12/15 06:19:27;;;;;;;2.58;1.70;;;;;;;21.71;28.00;100444.28;5130949;27;20140;-58
2021/12/15 06:21:53;;;;;;;2.58;1.73;;;;;;;21.63;27.96;100450.00;5131043;27;21323;-58
2021/12/15 06:24:18;;;;;;;2.35;1.50;;;;;;;21.51;28.24;100456.47;5131048;27;20529;-58
2021/12/15 06:26:44;;;;;;;4.30;1.75;;;;;;;21.39;28.53;100457.31;5130765;28;20042;-58
2021/12/15 06:29:10;;;;;;;7.35;1.50;;;;;;;21.32;28.69;100453.50;5130085;27;20043;-58
2021/12/15 06:31:36;;;;;;;3.28;1.63;;;;;;;21.24;28.69;100452.47;5130692;27;20383;-58
2021/12/15 06:34:01;;;;;;;2.28;1.42;;;;;;;21.53;28.58;100453.31;5130559;27;20105;-58
2021/12/15 06:36:30;;;;;;;4.07;1.70;;;;;;;21.98;27.86;100453.75;5130645;27;20051;-59
2021/12/15 06:38:55;;;;;;;3.20;1.50;;;;;;;22.17;27.41;100455.09;5130661;27;20096;-58
2021/12/15 06:41:22;;;;;;;4.38;1.85;;;;;;;22.05;27.56;100455.13;5130820;27;20142;-58
2021/12/15 06:43:54;;;;;;;5.43;1.55;;;;;;;21.88;27.93;100459.88;5130471;27;20179;-57
2021/12/15 07:00:24;;;;;;;2.38;1.65;;;;;;;22.10;27.44;100455.72;5066924;28;20099;-58
2021/12/15 07:02:50;;;;;;;2.40;1.55;;;;;;;21.93;27.80;100456.84;5066613;28;20049;-58
2021/12/15 07:05:16;;;;;;;2.25;1.38;;;;;;;21.75;28.08;100458.31;5066888;28;20040;-59
2021/12/15 07:07:44;;;;;;;2.80;1.80;;;;;;;21.63;27.97;100464.72;5066477;28;20052;-58
2021/12/15 07:10:13;;;;;;;2.58;1.60;;;;;;;21.53;28.09;100481.97;5050024;28;20064;-58
2021/12/15 07:12:39;;;;;;;2.65;1.80;;;;;;;21.44;28.43;100478.53;5066787;28;20048;-58
2021/12/15 07:15:08;;;;;;;2.63;1.70;;;;;;;21.38;28.41;100479.94;5066372;28;20079;-56
2021/12/15 07:17:36;;;;;;;2.70;1.77;;;;;;;21.32;28.37;100484.94;5068562;28;20051;-56
2021/12/15 07:20:28;;;;;;;2.75;1.80;;;;;;;21.28;28.65;100480.41;5068899;28;20060;-56
2021/12/15 07:22:52;;;;;;;2.72;1.75;;;;;;;21.25;28.68;100489.44;5095598;28;20514;-56
2021/12/15 07:25:17;;;;;;;3.63;2.08;;;;;;;21.21;28.44;100483.75;5130089;27;20562;-56
2021/12/15 07:27:43;;;;;;;2.70;1.90;;;;;;;21.18;28.72;100492.81;5129045;27;20043;-56
2021/12/15 07:30:10;;;;;;;2.95;1.85;;;;;;;21.13;28.89;100484.69;5129656;28;20047;-58
2021/12/15 07:32:36;;;;;;;2.47;1.80;;;;;;;21.13;28.74;100485.50;5129205;27;20092;-58
2021/12/15 07:35:04;;;;;;;2.50;1.60;;;;;;;21.12;28.81;100480.31;5124789;28;20031;-54
2021/12/15 07:37:29;;;;;;;2.70;1.75;;;;;;;21.12;28.53;100477.53;5127224;28;20075;-55
2021/12/15 07:39:58;;;;;;;2.67;1.70;;;;;;;21.19;28.41;100490.84;5129862;27;20043;-49
2021/12/15 07:42:33;;;;;;;2.75;1.92;;;;;;;21.21;28.47;100492.09;5133283;27;20039;-53
2021/12/15 07:44:59;;;;;;;2.85;1.90;;;;;;;21.22;28.38;100482.63;5132315;27;20047;-53
2021/12/15 07:47:24;;;;;;;2.70;1.73;;;;;;;21.24;28.46;100490.59;5132403;27;20046;-48
2021/12/15 07:49:50;;;;;;;2.53;1.70;;;;;;;21.26;28.50;100491.88;5118074;27;20050;-48
2021/12/15 07:52:16;;;;;;;2.85;2.00;;;;;;;21.25;28.58;100498.59;5131504;28;20388;-56
2021/12/15 07:54:41;;;;;;;4.97;1.90;;;;;;;21.26;28.61;100489.09;5123385;27;20047;-55
2021/12/15 07:57:11;;;;;;;3.85;1.95;;;;;;;21.24;29.04;100488.63;5126577;28;20042;-49
2021/12/15 07:59:36;;;;;;;3.47;2.17;;;;;;;21.23;29.04;100489.81;5128001;27;20507;-55
2021/12/15 08:02:02;;;;;;;3.00;2.05;;;;;;;21.22;29.08;100493.75;5125474;28;20039;-50
2021/12/15 08:04:28;;;;;;;5.90;2.03;;;;;;;21.19;29.06;100485.28;5114472;27;20457;-49
2021/12/15 08:06:53;;;;;;;3.83;2.17;;;;;;;21.25;30.00;100495.00;5111182;28;20410;-59
2021/12/15 08:09:20;;;;;;;15.65;2.10;;;;;;;21.28;30.03;100495.13;5127784;28;20100;-55
2021/12/15 08:11:46;;;;;;;7.57;2.28;;;;;;;21.23;30.15;100497.34;5115193;27;20047;-55
2021/12/15 08:14:12;;;;;;;6.88;2.40;;;;;;;21.20;30.47;100501.63;5111835;28;20051;-58
2021/12/15 08:16:38;;;;;;;3.10;1.90;;;;;;;21.21;30.58;100503.22;5127255;28;20043;-58
2021/12/15 08:19:04;;;;;;;5.80;2.38;;;;;;;21.21;31.02;100497.66;5130156;27;20047;-58
2021/12/15 08:21:30;;;;;;;5.22;2.40;;;;;;;21.23;30.85;100500.13;5115889;28;20113;-58
2021/12/15 08:23:56;;;;;;;3.58;2.00;;;;;;;21.24;30.45;100499.75;5119561;28;20070;-57
2021/12/15 08:26:22;;;;;;;3.60;2.22;;;;;;;21.26;30.40;100508.56;5131548;27;20073;-58
2021/12/15 08:28:47;;;;;;;3.72;2.17;;;;;;;21.28;30.25;100506.25;5130797;27;20043;-58
2021/12/15 08:31:13;;;;;;;4.00;2.63;;;;;;;21.31;30.23;100500.00;5119761;27;20075;-58
2021/12/15 08:33:39;;;;;;;3.70;2.42;;;;;;;21.33;30.17;100497.66;5114620;28;20118;-57
2021/12/15 08:36:07;;;;;;;4.38;2.40;;;;;;;21.35;30.23;100498.13;5120905;27;20054;-59
2021/12/15 08:38:36;;;;;;;11.38;2.40;;;;;;;21.38;30.24;100504.97;5124312;27;20121;-58
2021/12/15 08:41:10;;;;;;;6.55;2.42;;;;;;;21.39;30.06;100504.63;5127679;27;20072;-58
2021/12/15 08:43:36;;;;;;;10.65;2.03;;;;;;;21.42;30.19;100501.13;5130662;27;20043;-58
2021/12/15 08:46:10;;;;;;;7.40;2.83;;;;;;;21.41;30.32;100499.50;5128379;27;20104;-57
2021/12/15 08:48:37;;;;;;;7.50;2.50;;;;;;;21.43;30.23;100505.53;5131320;27;20081;-58
2021/12/15 08:51:06;;;;;;;10.70;2.50;;;;;;;21.43;30.25;100504.72;5129593;27;20404;-58
2021/12/15 08:53:32;;;;;;;8.90;2.25;;;;;;;21.45;30.39;100507.97;5126195;27;20043;-57
2021/12/15 08:55:58;;;;;;;7.00;2.42;;;;;;;21.46;29.94;100497.66;5125165;28;20063;-57
2021/12/15 08:58:25;;;;;;;13.70;3.03;;;;;;;21.46;30.28;100497.66;5128428;28;20081;-57
2021/12/15 09:00:56;;;;;;;13.02;5.68;;;;;;;21.46;30.00;100506.81;5124272;27;20047;-56
2021/12/15 09:03:22;;;;;;;10.25;4.32;;;;;;;21.50;30.00;100509.69;5127787;28;20082;-50
2021/12/15 09:05:51;;;;;;;8.90;4.20;;;;;;;21.51;30.09;100509.34;5128988;27;20043;-52
2021/12/15 09:08:17;;;;;;;9.50;3.60;;;;;;;21.52;30.26;100507.38;5128295;28;20046;-55
2021/12/15 09:10:45;;;;;;;7.75;3.60;;;;;;;21.54;30.01;100510.59;5129968;27;20043;-57
2021/12/15 09:13:14;;;;;;;5.85;3.20;;;;;;;21.55;30.19;100510.25;5129534;27;20054;-58
2021/12/15 09:15:41;;;;;;;7.28;3.40;;;;;;;21.43;30.13;100494.41;5128794;27;20078;-58
2021/12/15 09:18:08;;;;;;;7.65;3.55;;;;;;;21.61;29.91;100514.41;5124311;28;20054;-58
2021/12/15 09:20:35;;;;;;;10.98;3.80;;;;;;;21.55;30.11;100498.31;5126862;28;20061;-56
2021/12/15 09:23:03;;;;;;;4.82;2.70;;;;;;;21.38;33.37;100508.56;5125352;27;20070;-57
2021/12/15 09:25:29;;;;;;;6.20;2.65;;;;;;;21.22;33.86;100517.94;5126602;28;20039;-58
2021/12/15 09:27:58;;;;;;;5.72;4.03;;;;;;;21.26;31.68;100522.47;5127989;28;20043;-57
2021/12/15 09:30:26;;;;;;;6.10;3.10;;;;;;;21.36;31.57;100523.97;5129442;27;20146;-57
2021/12/15 09:32:51;;;;;;;4.93;3.30;;;;;;;21.38;31.47;100522.47;5129200;27;20031;-57
2021/12/15 09:35:18;;;;;;;5.53;2.90;;;;;;;21.38;33.60;100518.91;5124857;27;20039;-57
2021/12/15 09:37:44;;;;;;;7.60;3.42;;;;;;;21.33;31.46;100524.69;5121762;27;20082;-57
2021/12/15 09:40:14;;;;;;;6.63;3.20;;;;;;;21.33;31.05;100522.72;5130305;27;20115;-57
2021/12/15 09:42:40;;;;;;;8.02;3.38;;;;;;;21.38;30.80;100524.47;5124103;27;20124;-48
2021/12/15 09:45:23;;;;;;;9.00;2.80;;;;;;;21.39;30.63;100531.66;5129601;27;20134;-56
2021/12/15 10:19:53;;;;;;;9.57;3.20;;;;;;;21.56;30.46;100497.94;5126713;28;20035;-48
2021/12/15 10:22:37;;;;;;;4.43;3.30;;;;;;;21.52;30.62;100504.59;5117640;28;20185;-59
2021/12/15 10:25:15;;;;;;;7.28;3.47;;;;;;;21.52;30.70;100501.81;5118390;28;20042;-45
2021/12/15 10:27:45;;;;;;;4.72;3.30;;;;;;;21.52;30.65;100496.25;5124754;28;20081;-46
2021/12/15 10:30:31;;;;;;;4.38;3.10;;;;;;;21.49;30.76;100500.53;5125540;28;20066;-46
2021/12/15 10:33:31;;;;;;;4.70;3.40;;;;;;;21.49;31.01;100500.53;5128242;27;20051;-48
2021/12/15 10:35:57;;;;;;;5.57;3.88;;;;;;;21.50;30.71;100502.13;5122486;28;20118;-54
2021/12/15 10:38:28;;;;;;;20.65;3.60;;;;;;;21.51;30.78;100495.44;5127310;27;20070;-47
2021/12/15 10:40:58;;;;;;;9.00;3.35;;;;;;;21.48;31.27;100495.31;5118933;28;20134;-51
2021/12/15 10:43:39;;;;;;;5.97;3.17;;;;;;;21.48;31.29;100493.34;5127832;27;20043;-46
2021/12/15 10:46:09;;;;;;;5.60;3.33;;;;;;;21.51;31.50;100494.63;5116825;28;20069;-48
2021/12/15 10:48:52;;;;;;;9.00;4.22;;;;;;;21.41;31.47;100496.72;5126347;27;20082;-57
2021/12/15 10:51:20;;;;;;;4.97;3.60;;;;;;;21.39;31.30;100493.50;5127578;27;20403;-57
2021/12/15 10:53:47;;;;;;;13.23;3.30;;;;;;;21.34;31.59;100490.13;5128319;27;20116;-57
2021/12/15 10:56:18;;;;;;;6.45;3.88;;;;;;;21.31;31.76;100491.66;5128125;27;20066;-46
2021/12/15 10:58:50;;;;;;;6.50;4.32;;;;;;;21.28;31.71;100478.44;5127526;27;20088;-49
2021/12/15 11:01:31;;;;;;;5.07;3.53;;;;;;;21.24;31.71;100474.72;5118143;28;20430;-47
2021/12/15 11:03:58;;;;;;;5.07;3.60;;;;;;;21.24;31.88;100480.28;5123074;28;20035;-49
2021/12/15 11:06:32;;;;;;;6.03;3.63;;;;;;;21.22;32.33;100477.06;5120126;27;20066;-57
2021/12/15 11:09:17;;;;;;;7.57;3.55;;;;;;;21.23;32.06;100473.09;5126724;27;20469;-62
2021/12/15 11:12:04;;;;;;;6.13;3.88;;;;;;;21.33;31.76;100466.25;5120814;28;20081;-48
2021/12/15 11:14:33;;;;;;;5.03;3.45;;;;;;;21.40;31.91;100472.84;5111952;28;20046;-56
2021/12/15 11:17:14;;;;;;;5.15;3.10;;;;;;;21.40;31.92;100466.47;5125334;28;20608;-54
2021/12/15 11:20:10;;;;;;;4.68;3.50;;;;;;;21.41;31.89;100463.31;5129850;28;20039;-55
2021/12/15 11:22:54;;;;;;;6.78;3.92;;;;;;;21.42;32.06;100470.50;5130298;28;20069;-58
2021/12/15 11:25:27;;;;;;;4.68;3.50;;;;;;;21.39;31.92;100459.28;5116759;28;20571;-48
2021/12/15 11:28:07;;;;;;;5.40;3.63;;;;;;;21.39;31.78;100465.66;5131355;28;20047;-48
2021/12/15 11:30:58;;;;;;;4.80;3.40;;;;;;;21.33;31.77;100467.06;5130427;28;20046;-52
2021/12/15 11:33:45;;;;;;;5.97;3.10;;;;;;;21.26;31.88;100455.69;5128893;28;20039;-53
2021/12/15 11:36:16;;;;;;;5.45;3.67;;;;;;;21.20;31.94;100459.06;5117396;28;20511;-52
2021/12/15 11:38:43;;;;;;;4.45;3.40;;;;;;;21.16;31.96;100457.00;5131603;28;20051;-53
2021/12/15 11:41:37;;;;;;;5.72;3.63;;;;;;;21.10;32.28;100452.03;5127079;27;20394;-54
2021/12/15 11:44:06;;;;;;;5.07;3.63;;;;;;;21.12;31.79;100444.94;5109302;28;20055;-48
2021/12/15 11:46:42;;;;;;;5.68;3.30;;;;;;;21.60;31.09;100445.97;5120341;28;20043;-50
2021/12/15 11:49:15;;;;;;;4.53;3.40;;;;;;;22.56;29.79;100441.28;5131864;27;20100;-49
2021/12/15 11:51:50;;;;;;;4.50;3.58;;;;;;;23.54;28.25;100450.28;5130540;27;20100;-47
2021/12/15 11:54:18;;;;;;;6.07;4.05;;;;;;;23.37;28.41;100436.78;5131864;27;20042;-50
2021/12/15 11:56:44;;;;;;;5.35;3.70;;;;;;;22.95;28.68;100439.47;5131911;27;20411;-48
2021/12/15 11:59:34;;;;;;;4.72;3.45;;;;;;;22.51;29.25;100437.63;5131129;27;20051;-53
2021/12/15 12:02:05;;;;;;;5.50;3.33;;;;;;;22.18;29.64;100429.63;5109717;28;20419;-59
2021/12/15 12:04:44;;;;;;;4.75;3.58;;;;;;;21.90;29.97;100429.66;5120101;28;20046;-59
2021/12/15 12:07:18;;;;;;;4.13;3.15;;;;;;;22.08;30.13;100434.91;5131711;27;20046;-59
2021/12/15 12:09:48;;;;;;;4.28;3.08;;;;;;;22.65;29.27;100425.19;5130972;27;20095;-59
2021/12/15 12:12:16;;;;;;;4.88;3.30;;;;;;;23.33;28.33;100430.31;5130675;27;20039;-60
2021/12/15 12:14:50;;;;;;;7.80;3.50;;;;;;;23.13;28.32;100431.47;5131399;27;20047;-59
2021/12/15 12:17:23;;;;;;;4.85;3.50;;;;;;;22.72;28.80;100428.97;5131169;27;20046;-47
2021/12/15 12:19:57;;;;;;;;;;;;;;;22.48;29.39;100429.16;5131702;27;20559;-54
2021/12/15 12:22:28;;;;;;;5.53;3.38;;;;;;;23.09;28.82;100427.81;5129146;27;19915;-49
2021/12/15 12:24:56;;;;;;;6.38;3.33;;;;;;;23.56;27.99;100421.97;5128889;28;20594;-52
2021/12/15 12:27:24;;;;;;;6.30;3.45;;;;;;;23.10;28.49;100416.28;5125659;27;20054;-50
2021/12/15 12:29:52;;;;;;;5.65;3.67;;;;;;;22.71;29.00;100421.75;5128766;27;20047;-54
2021/12/15 12:32:18;;;;;;;5.07;3.90;;;;;;;22.36;29.63;100424.53;5127852;27;20105;-52
2021/12/15 12:34:43;;;;;;;6.97;3.17;;;;;;;22.09;29.86;100420.66;5129560;27;20097;-52
2021/12/15 12:37:14;;;;;;;4.80;3.78;;;;;;;21.92;29.98;100421.75;5127052;28;20038;-52
2021/12/15 12:39:42;;;;;;;5.00;3.88;;;;;;;21.77;30.53;100418.97;5123401;27;20046;-47
2021/12/15 12:42:08;;;;;;;6.28;4.13;;;;;;;21.67;30.63;100418.31;5122579;27;20576;-58
2021/12/15 12:44:38;;;;;;;5.90;4.43;;;;;;;21.60;30.52;100415.34;5127722;28;20047;-60